Lake Dolphin — ONHA — position and weather

sailwx.info

Track history (hours):
 
Tides and Currents Weather Stations Pressure Air Temp Water Temp Dewpoint Dewpoint Depression Visibility Wind Speed Wind Dir Waves Ship Positions

Lake Dolphin

Last reported at 2018-May-15 20:38 UTC. Time now 2018-May-24 21:16 UTC.
Position N 35°58' E 120°34'.
Warning: this ship's position is 9 days out of date.

Length 292 m; draft 10 m.

Type: Ship. MMSI: 205602000.

Date/timePositionNaut miles runAvg speedWind from/ knotsBaromVisibWave heightAir tempDewpointWater temp
2018-May-15 20:38N 35°58' E 120°34'2 9.4
2018-May-15 20:23N 35°59' E 120°32'5 9.1
2018-May-15 19:53N 35°60' E 120°26'10 8.0
2018-May-15 18:37N 36°01' E 120°14'0 0.8
2018-May-15 18:22N 36°02' E 120°13'0 0.2
2018-May-15 17:53N 36°02' E 120°13'0 0.0
2018-May-15 16:19N 36°02' E 120°13'0 0.0
2018-May-15 13:10N 36°02' E 120°13'0 0.0
2018-May-15 13:00N 36°02' E 120°13'0 0.0
2018-May-15 12:18N 36°02' E 120°13'0 0.0
2018-May-15 12:00N 36°02' E 120°13'0 0.0
2018-May-15 11:25N 36°02' E 120°13'0 0.0
2018-May-15 10:30N 36°02' E 120°13'0 0.0
2018-May-15 09:54N 36°02' E 120°13'0 0.0
2018-May-15 06:57N 36°02' E 120°13'0 0.0
2018-May-15 04:46N 36°02' E 120°13'0 0.0
2018-May-15 01:36N 36°02' E 120°13'0 0.0
2018-May-15 01:18N 36°02' E 120°13'0 0.0
2018-May-15 00:47N 36°02' E 120°13'0 0.0
2018-May-15 00:13N 36°02' E 120°13'0 0.0
2018-May-14 23:55N 36°02' E 120°13'0 0.0
2018-May-14 23:22N 36°02' E 120°13'0 0.0
2018-May-14 22:46N 36°02' E 120°13'0 0.0
2018-May-14 22:28N 36°02' E 120°13'0 0.0
2018-May-14 21:55N 36°02' E 120°13'0 0.0
2018-May-14 20:30N 36°02' E 120°13'0 0.0
2018-May-14 19:51N 36°02' E 120°13'0 0.0
2018-May-14 19:14N 36°02' E 120°13'0 0.0
2018-May-14 18:58N 36°02' E 120°13'0 0.0
2018-May-14 18:07N 36°02' E 120°13'0 0.0
2018-May-14 13:38N 36°02' E 120°13'0 0.0
2018-May-14 13:04N 36°02' E 120°13'0 0.0
2018-May-14 12:44N 36°02' E 120°13'0 0.0
2018-May-14 11:50N 36°02' E 120°13'0 0.0
2018-May-14 11:13N 36°02' E 120°13'0 0.0
2018-May-14 10:54N 36°02' E 120°13'0 0.0
2018-May-14 09:22N 36°02' E 120°13'0 0.0
2018-May-14 08:50N 36°02' E 120°13'0 0.0
2018-May-14 08:26N 36°02' E 120°13'0 0.0
2018-May-14 07:47N 36°02' E 120°13'0 0.0
2018-May-14 07:26N 36°02' E 120°13'0 0.0
2018-May-14 06:47N 36°02' E 120°13'0 0.0
2018-May-14 04:13N 36°02' E 120°13'0 0.0
2018-May-14 03:51N 36°02' E 120°13'0 0.0
2018-May-14 03:27N 36°02' E 120°13'0 0.0
2018-May-14 02:57N 36°02' E 120°13'0 0.0
2018-May-14 02:21N 36°02' E 120°13'0 0.0
2018-May-14 01:59N 36°02' E 120°13'0 0.0
2018-May-14 00:17N 36°02' E 120°13'0 0.0
2018-May-13 23:59N 36°02' E 120°13'0 0.0
2018-May-13 23:26N 36°02' E 120°13'0 0.0
2018-May-13 22:19N 36°02' E 120°13'0 0.0
2018-May-13 21:46N 36°02' E 120°13'0 0.0
2018-May-13 20:32N 36°02' E 120°13'0 0.0
2018-May-13 20:17N 36°02' E 120°13'0 0.0
2018-May-13 19:38N 36°02' E 120°13'0 0.0
2018-May-13 19:17N 36°02' E 120°13'0 0.0
2018-May-13 18:59N 36°02' E 120°13'0 0.0
2018-May-13 18:17N 36°02' E 120°13'0 0.0
2018-May-13 12:28N 36°02' E 120°13'0 0.2
2018-May-13 12:00N 36°02' E 120°13'0 0.1
2018-May-13 07:24N 36°02' E 120°14'0 0.0
2018-May-13 04:28N 36°02' E 120°14'0 0.0
2018-May-13 02:49N 36°02' E 120°14'0 0.0
2018-May-13 02:29N 36°02' E 120°14'0 0.0
2018-May-13 01:57N 36°02' E 120°14'0 0.0
2018-May-13 00:02N 36°02' E 120°14'0 0.0
2018-May-12 23:45N 36°02' E 120°14'0 0.0
2018-May-12 23:20N 36°02' E 120°14'0 0.0
2018-May-12 22:49N 36°02' E 120°14'0 0.0
2018-May-12 22:17N 36°02' E 120°14'0 0.0
2018-May-12 21:59N 36°02' E 120°14'0 0.0
2018-May-12 21:20N 36°02' E 120°14'0 0.0
2018-May-12 20:31N 36°02' E 120°14'0 0.0
2018-May-12 20:16N 36°02' E 120°14'0 0.0
2018-May-12 18:39N 36°02' E 120°14'0 0.0
2018-May-12 18:21N 36°02' E 120°14'0 0.0
2018-May-12 12:38N 36°02' E 120°14'0 0.0
2018-May-12 12:23N 36°02' E 120°14'0 0.0
2018-May-12 11:41N 36°02' E 120°14'0 0.0
2018-May-12 11:23N 36°02' E 120°14'0 0.0
2018-May-12 10:32N 36°02' E 120°14'0 0.0
2018-May-12 09:24N 36°02' E 120°14'0 0.1
2018-May-12 06:40N 36°02' E 120°14'2 5.8
2018-May-12 06:22N 36°02' E 120°16'19610.7
2018-May-11 12:00N 34°00' E 123°24'14312.3 120 / 131018.4 17.013.713.0
2018-May-11 00:17N 31°48' E 124°31'16213.2
2018-May-10 12:00N 29°06' E 124°30'29410.3 360 / 211022.5 17.015.419.0
2018-May-09 07:33N 24°28' E 122°43'010.8
2018-May-09 07:30N 24°27' E 122°43'20210.3
2018-May-08 12:00N 21°12' E 121°48'50910.6 230 / 131014.4 27.024.328.0
2018-May-06 12:00N 12°54' E 120°00'   270 / 71016.4 31.025.729.0
Track history (hours):
 
Tides and Currents Weather Stations Pressure Air Temp Water Temp Dewpoint Dewpoint Depression Visibility Wind Speed Wind Dir Waves Ship Positions

Lake Dolphin

Last reported at 2018-May-15 20:38 UTC. Time now 2018-May-24 21:16 UTC.
Position N 35°58' E 120°34'.
Warning: this ship's position is 9 days out of date.

Length 292 m; draft 10 m.

Type: Ship. MMSI: 205602000.

Date/timePositionNaut miles runAvg speedWind from/ knotsBaromVisibWave heightAir tempDewpointWater temp
2018-May-15 20:38N 35°58' E 120°34'2 9.4
2018-May-15 20:23N 35°59' E 120°32'5 9.1
2018-May-15 19:53N 35°60' E 120°26'10 8.0
2018-May-15 18:37N 36°01' E 120°14'0 0.8
2018-May-15 18:22N 36°02' E 120°13'0 0.2
2018-May-15 17:53N 36°02' E 120°13'0 0.0
2018-May-15 16:19N 36°02' E 120°13'0 0.0
2018-May-15 13:10N 36°02' E 120°13'0 0.0
2018-May-15 13:00N 36°02' E 120°13'0 0.0
2018-May-15 12:18N 36°02' E 120°13'0 0.0
2018-May-15 12:00N 36°02' E 120°13'0 0.0
2018-May-15 11:25N 36°02' E 120°13'0 0.0
2018-May-15 10:30N 36°02' E 120°13'0 0.0
2018-May-15 09:54N 36°02' E 120°13'0 0.0
2018-May-15 06:57N 36°02' E 120°13'0 0.0
2018-May-15 04:46N 36°02' E 120°13'0 0.0
2018-May-15 01:36N 36°02' E 120°13'0 0.0
2018-May-15 01:18N 36°02' E 120°13'0 0.0
2018-May-15 00:47N 36°02' E 120°13'0 0.0
2018-May-15 00:13N 36°02' E 120°13'0 0.0
2018-May-14 23:55N 36°02' E 120°13'0 0.0
2018-May-14 23:22N 36°02' E 120°13'0 0.0
2018-May-14 22:46N 36°02' E 120°13'0 0.0
2018-May-14 22:28N 36°02' E 120°13'0 0.0
2018-May-14 21:55N 36°02' E 120°13'0 0.0
2018-May-14 20:30N 36°02' E 120°13'0 0.0
2018-May-14 19:51N 36°02' E 120°13'0 0.0
2018-May-14 19:14N 36°02' E 120°13'0 0.0
2018-May-14 18:58N 36°02' E 120°13'0 0.0
2018-May-14 18:07N 36°02' E 120°13'0 0.0
2018-May-14 13:38N 36°02' E 120°13'0 0.0
2018-May-14 13:04N 36°02' E 120°13'0 0.0
2018-May-14 12:44N 36°02' E 120°13'0 0.0
2018-May-14 11:50N 36°02' E 120°13'0 0.0
2018-May-14 11:13N 36°02' E 120°13'0 0.0
2018-May-14 10:54N 36°02' E 120°13'0 0.0
2018-May-14 09:22N 36°02' E 120°13'0 0.0
2018-May-14 08:50N 36°02' E 120°13'0 0.0
2018-May-14 08:26N 36°02' E 120°13'0 0.0
2018-May-14 07:47N 36°02' E 120°13'0 0.0
2018-May-14 07:26N 36°02' E 120°13'0 0.0
2018-May-14 06:47N 36°02' E 120°13'0 0.0
2018-May-14 04:13N 36°02' E 120°13'0 0.0
2018-May-14 03:51N 36°02' E 120°13'0 0.0
2018-May-14 03:27N 36°02' E 120°13'0 0.0
2018-May-14 02:57N 36°02' E 120°13'0 0.0
2018-May-14 02:21N 36°02' E 120°13'0 0.0
2018-May-14 01:59N 36°02' E 120°13'0 0.0
2018-May-14 00:17N 36°02' E 120°13'0 0.0
2018-May-13 23:59N 36°02' E 120°13'0 0.0
2018-May-13 23:26N 36°02' E 120°13'0 0.0
2018-May-13 22:19N 36°02' E 120°13'0 0.0
2018-May-13 21:46N 36°02' E 120°13'0 0.0
2018-May-13 20:32N 36°02' E 120°13'0 0.0
2018-May-13 20:17N 36°02' E 120°13'0 0.0
2018-May-13 19:38N 36°02' E 120°13'0 0.0
2018-May-13 19:17N 36°02' E 120°13'0 0.0
2018-May-13 18:59N 36°02' E 120°13'0 0.0
2018-May-13 18:17N 36°02' E 120°13'0 0.0
2018-May-13 12:28N 36°02' E 120°13'0 0.2
2018-May-13 12:00N 36°02' E 120°13'0 0.1
2018-May-13 07:24N 36°02' E 120°14'0 0.0
2018-May-13 04:28N 36°02' E 120°14'0 0.0
2018-May-13 02:49N 36°02' E 120°14'0 0.0
2018-May-13 02:29N 36°02' E 120°14'0 0.0
2018-May-13 01:57N 36°02' E 120°14'0 0.0
2018-May-13 00:02N 36°02' E 120°14'0 0.0
2018-May-12 23:45N 36°02' E 120°14'0 0.0
2018-May-12 23:20N 36°02' E 120°14'0 0.0
2018-May-12 22:49N 36°02' E 120°14'0 0.0
2018-May-12 22:17N 36°02' E 120°14'0 0.0
2018-May-12 21:59N 36°02' E 120°14'0 0.0
2018-May-12 21:20N 36°02' E 120°14'0 0.0
2018-May-12 20:31N 36°02' E 120°14'0 0.0
2018-May-12 20:16N 36°02' E 120°14'0 0.0
2018-May-12 18:39N 36°02' E 120°14'0 0.0
2018-May-12 18:21N 36°02' E 120°14'0 0.0
2018-May-12 12:38N 36°02' E 120°14'0 0.0
2018-May-12 12:23N 36°02' E 120°14'0 0.0
2018-May-12 11:41N 36°02' E 120°14'0 0.0
2018-May-12 11:23N 36°02' E 120°14'0 0.0
2018-May-12 10:32N 36°02' E 120°14'0 0.0
2018-May-12 09:24N 36°02' E 120°14'0 0.1
2018-May-12 06:40N 36°02' E 120°14'2 5.8
2018-May-12 06:22N 36°02' E 120°16'19610.7
2018-May-11 12:00N 34°00' E 123°24'14312.3 120 / 131018.4 17.013.713.0
2018-May-11 00:17N 31°48' E 124°31'16213.2
2018-May-10 12:00N 29°06' E 124°30'29410.3 360 / 211022.5 17.015.419.0
2018-May-09 07:33N 24°28' E 122°43'010.8
2018-May-09 07:30N 24°27' E 122°43'20210.3
2018-May-08 12:00N 21°12' E 121°48'50910.6 230 / 131014.4 27.024.328.0
2018-May-06 12:00N 12°54' E 120°00'   270 / 71016.4 31.025.729.0

Dump ship's entire track history